sensor_id;sensor_type;location;lat;lon;timestamp;pressure;altitude;pressure_sealevel;temperature;humidity
59531;BME280;45349;48.692;8.186;2023-12-20T00:02:01;147736.56;;;6.21;100.00
59531;BME280;45349;48.692;8.186;2023-12-20T00:04:31;147714.19;;;6.12;100.00
59531;BME280;45349;48.692;8.186;2023-12-20T00:06:58;147654.56;;;5.87;100.00
59531;BME280;45349;48.692;8.186;2023-12-20T00:09:24;147659.53;;;5.89;100.00
59531;BME280;45349;48.692;8.186;2023-12-20T00:11:51;147642.16;;;5.82;100.00
59531;BME280;45349;48.692;8.186;2023-12-20T00:14:18;147603.69;;;5.66;100.00
59531;BME280;45349;48.692;8.186;2023-12-20T00:16:45;147626.03;;;5.75;100.00
59531;BME280;45349;48.692;8.186;2023-12-20T00:19:12;147621.06;;;5.73;100.00
59531;BME280;45349;48.692;8.186;2023-12-20T00:21:39;147623.53;;;5.74;100.00
59531;BME280;45349;48.692;8.186;2023-12-20T00:24:05;147633.47;;;5.78;100.00
59531;BME280;45349;48.692;8.186;2023-12-20T00:26:32;147642.16;;;5.82;100.00
59531;BME280;45349;48.692;8.186;2023-12-20T00:28:59;147632.22;;;5.78;100.00
59531;BME280;45349;48.692;8.186;2023-12-20T00:31:26;147644.63;;;5.83;100.00
59531;BME280;45349;48.692;8.186;2023-12-20T00:33:54;147635.97;;;5.79;100.00
59531;BME280;45349;48.692;8.186;2023-12-20T00:36:21;147627.25;;;5.75;100.00
59531;BME280;45349;48.692;8.186;2023-12-20T00:38:48;147611.13;;;5.69;100.00
59531;BME280;45349;48.692;8.186;2023-12-20T00:41:15;147621.06;;;5.73;100.00
59531;BME280;45349;48.692;8.186;2023-12-20T00:43:41;147624.75;;;5.74;100.00
59531;BME280;45349;48.692;8.186;2023-12-20T00:46:08;147632.22;;;5.78;100.00
59531;BME280;45349;48.692;8.186;2023-12-20T00:48:35;147628.50;;;5.76;100.00
59531;BME280;45349;48.692;8.186;2023-12-20T00:51:03;147629.72;;;5.76;100.00
59531;BME280;45349;48.692;8.186;2023-12-20T00:53:30;147647.09;;;5.84;100.00
59531;BME280;45349;48.692;8.186;2023-12-20T00:55:56;147652.06;;;5.86;100.00
59531;BME280;45349;48.692;8.186;2023-12-20T00:58:24;147668.19;;;5.93;100.00
59531;BME280;45349;48.692;8.186;2023-12-20T01:00:50;147647.09;;;5.84;100.00
59531;BME280;45349;48.692;8.186;2023-12-20T01:03:17;147650.81;;;5.85;100.00
59531;BME280;45349;48.692;8.186;2023-12-20T01:05:43;147643.41;;;5.82;100.00
59531;BME280;45349;48.692;8.186;2023-12-20T01:08:11;147645.84;;;5.83;100.00
59531;BME280;45349;48.692;8.186;2023-12-20T01:10:38;147637.19;;;5.80;100.00
59531;BME280;45349;48.692;8.186;2023-12-20T01:13:05;147635.97;;;5.79;100.00
59531;BME280;45349;48.692;8.186;2023-12-20T01:15:34;147634.69;;;5.79;100.00
59531;BME280;45349;48.692;8.186;2023-12-20T01:18:01;147617.31;;;5.71;100.00
59531;BME280;45349;48.692;8.186;2023-12-20T01:20:27;147614.84;;;5.70;100.00
59531;BME280;45349;48.692;8.186;2023-12-20T01:22:54;147614.84;;;5.70;100.00
59531;BME280;45349;48.692;8.186;2023-12-20T01:25:22;147611.13;;;5.69;100.00
59531;BME280;45349;48.692;8.186;2023-12-20T01:27:49;147619.78;;;5.72;100.00
59531;BME280;45349;48.692;8.186;2023-12-20T01:30:15;147613.59;;;5.70;100.00
59531;BME280;45349;48.692;8.186;2023-12-20T01:32:42;147607.38;;;5.67;100.00
59531;BME280;45349;48.692;8.186;2023-12-20T01:35:08;147611.13;;;5.69;100.00
59531;BME280;45349;48.692;8.186;2023-12-20T01:37:35;147618.56;;;5.72;100.00
59531;BME280;45349;48.692;8.186;2023-12-20T01:40:02;147629.72;;;5.76;100.00
59531;BME280;45349;48.692;8.186;2023-12-20T01:42:30;147629.72;;;5.76;100.00
59531;BME280;45349;48.692;8.186;2023-12-20T01:44:57;147617.31;;;5.71;100.00
59531;BME280;45349;48.692;8.186;2023-12-20T01:47:24;147626.03;;;5.75;100.00
59531;BME280;45349;48.692;8.186;2023-12-20T01:49:52;147611.13;;;5.69;100.00
59531;BME280;45349;48.692;8.186;2023-12-20T01:52:19;147624.75;;;5.74;100.00
59531;BME280;45349;48.692;8.186;2023-12-20T01:54:47;147626.03;;;5.75;100.00
59531;BME280;45349;48.692;8.186;2023-12-20T01:57:14;147633.47;;;5.78;100.00
59531;BME280;45349;48.692;8.186;2023-12-20T01:59:42;147616.09;;;5.71;100.00
59531;BME280;45349;48.692;8.186;2023-12-20T02:02:10;147635.97;;;5.79;100.00
59531;BME280;45349;48.692;8.186;2023-12-20T02:04:37;147642.16;;;5.82;100.00
59531;BME280;45349;48.692;8.186;2023-12-20T02:07:04;147629.72;;;5.76;100.00
59531;BME280;45349;48.692;8.186;2023-12-20T02:09:32;147621.06;;;5.73;100.00
59531;BME280;45349;48.692;8.186;2023-12-20T02:11:59;147624.75;;;5.74;100.00
59531;BME280;45349;48.692;8.186;2023-12-20T02:14:28;147621.06;;;5.73;100.00
59531;BME280;45349;48.692;8.186;2023-12-20T02:16:56;147614.84;;;5.70;100.00
59531;BME280;45349;48.692;8.186;2023-12-20T02:19:23;147624.75;;;5.74;100.00
59531;BME280;45349;48.692;8.186;2023-12-20T02:22:04;147618.56;;;5.72;100.00
59531;BME280;45349;48.692;8.186;2023-12-20T02:24:31;147608.66;;;5.68;100.00
59531;BME280;45349;48.692;8.186;2023-12-20T02:26:58;147594.97;;;5.62;100.00
59531;BME280;45349;48.692;8.186;2023-12-20T02:29:25;147599.94;;;5.64;100.00
59531;BME280;45349;48.692;8.186;2023-12-20T02:31:52;147621.06;;;5.73;100.00
59531;BME280;45349;48.692;8.186;2023-12-20T02:34:18;147614.84;;;5.70;100.00
59531;BME280;45349;48.692;8.186;2023-12-20T02:36:45;147621.06;;;5.73;100.00
59531;BME280;45349;48.692;8.186;2023-12-20T02:39:13;147606.16;;;5.67;100.00
59531;BME280;45349;48.692;8.186;2023-12-20T02:41:40;147602.41;;;5.65;100.00
59531;BME280;45349;48.692;8.186;2023-12-20T02:44:07;147594.97;;;5.62;100.00
59531;BME280;45349;48.692;8.186;2023-12-20T02:46:33;147587.53;;;5.59;100.00
59531;BME280;45349;48.692;8.186;2023-12-20T02:49:00;147591.28;;;5.60;100.00
59531;BME280;45349;48.692;8.186;2023-12-20T02:51:27;147596.22;;;5.63;100.00
59531;BME280;45349;48.692;8.186;2023-12-20T02:53:53;147588.78;;;5.59;100.00
59531;BME280;45349;48.692;8.186;2023-12-20T02:56:21;147580.06;;;5.56;100.00
59531;BME280;45349;48.692;8.186;2023-12-20T02:58:48;147578.84;;;5.55;100.00
59531;BME280;45349;48.692;8.186;2023-12-20T03:01:14;147581.34;;;5.56;100.00
59531;BME280;45349;48.692;8.186;2023-12-20T03:03:41;147583.81;;;5.57;100.00
59531;BME280;45349;48.692;8.186;2023-12-20T03:06:07;147567.66;;;5.51;100.00
59531;BME280;45349;48.692;8.186;2023-12-20T03:08:34;147565.19;;;5.50;100.00
59531;BME280;45349;48.692;8.186;2023-12-20T03:11:01;147561.47;;;5.48;100.00
59531;BME280;45349;48.692;8.186;2023-12-20T03:13:29;147561.47;;;5.48;100.00
59531;BME280;45349;48.692;8.186;2023-12-20T03:15:55;147565.19;;;5.50;100.00
59531;BME280;45349;48.692;8.186;2023-12-20T03:18:22;147563.97;;;5.49;100.00
59531;BME280;45349;48.692;8.186;2023-12-20T03:20:48;147570.13;;;5.52;100.00
59531;BME280;45349;48.692;8.186;2023-12-20T03:23:16;147550.28;;;5.43;100.00
59531;BME280;45349;48.692;8.186;2023-12-20T03:25:42;147556.50;;;5.46;100.00
59531;BME280;45349;48.692;8.186;2023-12-20T03:28:09;147562.69;;;5.49;100.00
59531;BME280;45349;48.692;8.186;2023-12-20T03:30:37;147562.69;;;5.49;100.00
59531;BME280;45349;48.692;8.186;2023-12-20T03:33:04;147566.44;;;5.50;100.00
59531;BME280;45349;48.692;8.186;2023-12-20T03:35:30;147575.09;;;5.54;100.00
59531;BME280;45349;48.692;8.186;2023-12-20T03:37:57;147567.66;;;5.51;100.00
59531;BME280;45349;48.692;8.186;2023-12-20T03:40:25;147557.72;;;5.46;100.00
59531;BME280;45349;48.692;8.186;2023-12-20T03:42:52;147570.13;;;5.52;100.00
59531;BME280;45349;48.692;8.186;2023-12-20T03:45:18;147572.63;;;5.53;100.00
59531;BME280;45349;48.692;8.186;2023-12-20T03:47:46;147556.50;;;5.46;100.00
59531;BME280;45349;48.692;8.186;2023-12-20T03:50:13;147565.19;;;5.50;100.00
59531;BME280;45349;48.692;8.186;2023-12-20T03:52:39;147565.19;;;5.50;100.00
59531;BME280;45349;48.692;8.186;2023-12-20T03:55:06;147557.72;;;5.46;100.00
59531;BME280;45349;48.692;8.186;2023-12-20T03:57:33;147552.75;;;5.44;100.00
59531;BME280;45349;48.692;8.186;2023-12-20T03:59:59;147556.50;;;5.46;100.00
59531;BME280;45349;48.692;8.186;2023-12-20T04:02:26;147556.50;;;5.46;100.00
59531;BME280;45349;48.692;8.186;2023-12-20T04:04:54;147562.69;;;5.49;100.00
59531;BME280;45349;48.692;8.186;2023-12-20T04:07:20;147550.28;;;5.43;100.00
59531;BME280;45349;48.692;8.186;2023-12-20T04:09:47;147536.66;;;5.38;100.00
59531;BME280;45349;48.692;8.186;2023-12-20T04:12:14;147536.66;;;5.38;100.00
59531;BME280;45349;48.692;8.186;2023-12-20T04:14:40;147521.75;;;5.31;100.00
59531;BME280;45349;48.692;8.186;2023-12-20T04:17:07;147526.72;;;5.34;100.00
59531;BME280;45349;48.692;8.186;2023-12-20T04:19:34;147522.97;;;5.32;100.00
59531;BME280;45349;48.692;8.186;2023-12-20T04:22:02;147529.19;;;5.35;100.00
59531;BME280;45349;48.692;8.186;2023-12-20T04:24:31;147513.09;;;5.28;100.00
59531;BME280;45349;48.692;8.186;2023-12-20T04:26:57;147532.91;;;5.36;100.00
59531;BME280;45349;48.692;8.186;2023-12-20T04:29:24;147530.44;;;5.35;100.00
59531;BME280;45349;48.692;8.186;2023-12-20T04:31:50;147540.34;;;5.39;100.00
59531;BME280;45349;48.692;8.186;2023-12-20T04:34:17;147537.88;;;5.38;100.00
59531;BME280;45349;48.692;8.186;2023-12-20T04:36:45;147530.44;;;5.35;100.00
59531;BME280;45349;48.692;8.186;2023-12-20T04:39:13;147526.72;;;5.34;100.00
59531;BME280;45349;48.692;8.186;2023-12-20T04:41:40;147532.91;;;5.36;100.00
59531;BME280;45349;48.692;8.186;2023-12-20T04:44:06;147535.38;;;5.37;100.00
59531;BME280;45349;48.692;8.186;2023-12-20T04:46:33;147546.59;;;5.42;100.00
59531;BME280;45349;48.692;8.186;2023-12-20T04:49:00;147530.44;;;5.35;100.00
59531;BME280;45349;48.692;8.186;2023-12-20T04:51:27;147551.53;;;5.44;100.00
59531;BME280;45349;48.692;8.186;2023-12-20T04:53:53;147560.22;;;5.47;100.00
59531;BME280;45349;48.692;8.186;2023-12-20T04:56:21;147550.28;;;5.43;100.00
59531;BME280;45349;48.692;8.186;2023-12-20T04:58:48;147575.09;;;5.54;100.00
59531;BME280;45349;48.692;8.186;2023-12-20T05:01:14;147575.09;;;5.54;100.00
59531;BME280;45349;48.692;8.186;2023-12-20T05:03:42;147552.75;;;5.44;100.00
59531;BME280;45349;48.692;8.186;2023-12-20T05:06:09;147551.53;;;5.44;100.00
59531;BME280;45349;48.692;8.186;2023-12-20T05:08:35;147556.50;;;5.46;100.00
59531;BME280;45349;48.692;8.186;2023-12-20T05:11:03;147555.25;;;5.45;100.00
59531;BME280;45349;48.692;8.186;2023-12-20T05:13:31;147540.34;;;5.39;100.00
59531;BME280;45349;48.692;8.186;2023-12-20T05:15:58;147530.44;;;5.35;100.00
59531;BME280;45349;48.692;8.186;2023-12-20T05:18:24;147532.91;;;5.36;100.00
59531;BME280;45349;48.692;8.186;2023-12-20T05:20:51;147555.25;;;5.45;100.00
59531;BME280;45349;48.692;8.186;2023-12-20T05:23:18;147567.66;;;5.51;100.00
59531;BME280;45349;48.692;8.186;2023-12-20T05:25:45;147561.47;;;5.48;100.00
59531;BME280;45349;48.692;8.186;2023-12-20T05:28:12;147552.75;;;5.44;100.00
59531;BME280;45349;48.692;8.186;2023-12-20T05:30:40;147549.06;;;5.43;100.00
59531;BME280;45349;48.692;8.186;2023-12-20T05:33:06;147565.19;;;5.50;100.00
59531;BME280;45349;48.692;8.186;2023-12-20T05:35:33;147580.06;;;5.56;100.00
59531;BME280;45349;48.692;8.186;2023-12-20T05:38:03;147559.00;;;5.47;100.00
59531;BME280;45349;48.692;8.186;2023-12-20T05:40:29;147530.44;;;5.35;100.00
59531;BME280;45349;48.692;8.186;2023-12-20T05:42:56;147554.03;;;5.45;100.00
59531;BME280;45349;48.692;8.186;2023-12-20T05:45:22;147563.97;;;5.49;100.00
59531;BME280;45349;48.692;8.186;2023-12-20T05:47:50;147560.22;;;5.47;100.00
59531;BME280;45349;48.692;8.186;2023-12-20T05:50:17;147535.38;;;5.37;100.00
59531;BME280;45349;48.692;8.186;2023-12-20T05:52:44;147514.31;;;5.28;100.00
59531;BME280;45349;48.692;8.186;2023-12-20T05:55:10;147520.50;;;5.31;100.00
59531;BME280;45349;48.692;8.186;2023-12-20T05:57:37;147501.91;;;5.23;100.00
59531;BME280;45349;48.692;8.186;2023-12-20T06:00:04;147510.63;;;5.27;100.00
59531;BME280;45349;48.692;8.186;2023-12-20T06:02:37;147504.38;;;5.24;100.00
59531;BME280;45349;48.692;8.186;2023-12-20T06:05:06;147500.69;;;5.23;100.00
59531;BME280;45349;48.692;8.186;2023-12-20T06:07:33;147505.66;;;5.25;100.00
59531;BME280;45349;48.692;8.186;2023-12-20T06:09:59;147493.25;;;5.20;100.00
59531;BME280;45349;48.692;8.186;2023-12-20T06:12:26;147504.38;;;5.24;100.00
59531;BME280;45349;48.692;8.186;2023-12-20T06:14:54;147506.88;;;5.25;100.00
59531;BME280;45349;48.692;8.186;2023-12-20T06:17:20;147510.63;;;5.27;100.00
59531;BME280;45349;48.692;8.186;2023-12-20T06:19:47;147514.31;;;5.28;100.00
59531;BME280;45349;48.692;8.186;2023-12-20T06:22:15;147529.19;;;5.35;100.00
59531;BME280;45349;48.692;8.186;2023-12-20T06:24:42;147522.97;;;5.32;100.00
59531;BME280;45349;48.692;8.186;2023-12-20T06:27:08;147500.69;;;5.23;100.00
59531;BME280;45349;48.692;8.186;2023-12-20T06:29:35;147516.78;;;5.29;100.00
59531;BME280;45349;48.692;8.186;2023-12-20T06:32:02;147519.28;;;5.30;100.00
59531;BME280;45349;48.692;8.186;2023-12-20T06:34:31;147520.50;;;5.31;100.00
59531;BME280;45349;48.692;8.186;2023-12-20T06:36:58;147515.56;;;5.29;100.00
59531;BME280;45349;48.692;8.186;2023-12-20T06:39:26;147532.91;;;5.36;100.00
59531;BME280;45349;48.692;8.186;2023-12-20T06:41:53;147521.75;;;5.31;100.00
59531;BME280;45349;48.692;8.186;2023-12-20T06:44:19;147531.69;;;5.36;100.00
59531;BME280;45349;48.692;8.186;2023-12-20T06:46:46;147536.66;;;5.38;100.00
59531;BME280;45349;48.692;8.186;2023-12-20T06:49:13;147521.75;;;5.31;100.00
59531;BME280;45349;48.692;8.186;2023-12-20T06:51:39;147525.47;;;5.33;100.00
59531;BME280;45349;48.692;8.186;2023-12-20T06:54:06;147535.38;;;5.37;100.00
59531;BME280;45349;48.692;8.186;2023-12-20T06:56:34;147544.09;;;5.41;100.00
59531;BME280;45349;48.692;8.186;2023-12-20T06:59:00;147550.28;;;5.43;100.00
59531;BME280;45349;48.692;8.186;2023-12-20T07:01:27;147541.63;;;5.40;100.00
59531;BME280;45349;48.692;8.186;2023-12-20T07:03:53;147545.31;;;5.41;100.00
59531;BME280;45349;48.692;8.186;2023-12-20T07:06:20;147542.84;;;5.40;100.00
59531;BME280;45349;48.692;8.186;2023-12-20T07:08:47;147529.19;;;5.35;100.00
59531;BME280;45349;48.692;8.186;2023-12-20T07:11:13;147518.06;;;5.30;100.00
59531;BME280;45349;48.692;8.186;2023-12-20T07:13:41;147526.72;;;5.34;100.00
59531;BME280;45349;48.692;8.186;2023-12-20T07:16:08;147532.91;;;5.36;100.00
59531;BME280;45349;48.692;8.186;2023-12-20T07:18:34;147531.69;;;5.36;100.00
59531;BME280;45349;48.692;8.186;2023-12-20T07:21:01;147513.09;;;5.28;100.00
59531;BME280;45349;48.692;8.186;2023-12-20T07:23:28;147511.84;;;5.27;100.00
59531;BME280;45349;48.692;8.186;2023-12-20T07:25:55;147510.63;;;5.27;100.00
59531;BME280;45349;48.692;8.186;2023-12-20T07:28:21;147513.09;;;5.28;100.00
59531;BME280;45349;48.692;8.186;2023-12-20T07:30:49;147496.94;;;5.21;100.00
59531;BME280;45349;48.692;8.186;2023-12-20T07:33:16;147495.72;;;5.21;100.00
59531;BME280;45349;48.692;8.186;2023-12-20T07:35:42;147488.28;;;5.17;100.00
59531;BME280;45349;48.692;8.186;2023-12-20T07:38:10;147475.88;;;5.12;100.00
59531;BME280;45349;48.692;8.186;2023-12-20T07:40:37;147474.59;;;5.12;100.00
59531;BME280;45349;48.692;8.186;2023-12-20T07:43:04;147479.56;;;5.14;100.00
59531;BME280;45349;48.692;8.186;2023-12-20T07:45:31;147470.91;;;5.10;100.00
59531;BME280;45349;48.692;8.186;2023-12-20T07:47:59;147472.13;;;5.11;100.00
59531;BME280;45349;48.692;8.186;2023-12-20T07:50:25;147477.09;;;5.13;100.00
59531;BME280;45349;48.692;8.186;2023-12-20T07:52:52;147470.91;;;5.10;100.00
59531;BME280;45349;48.692;8.186;2023-12-20T07:55:19;147477.09;;;5.13;100.00
59531;BME280;45349;48.692;8.186;2023-12-20T07:57:46;147479.56;;;5.14;100.00
59531;BME280;45349;48.692;8.186;2023-12-20T08:00:13;147488.28;;;5.17;100.00
59531;BME280;45349;48.692;8.186;2023-12-20T08:02:40;147501.91;;;5.23;100.00
59531;BME280;45349;48.692;8.186;2023-12-20T08:05:08;147495.72;;;5.21;100.00
59531;BME280;45349;48.692;8.186;2023-12-20T08:07:35;147510.63;;;5.27;100.00
59531;BME280;45349;48.692;8.186;2023-12-20T08:10:01;147501.91;;;5.23;100.00
59531;BME280;45349;48.692;8.186;2023-12-20T08:12:28;147511.84;;;5.27;100.00
59531;BME280;45349;48.692;8.186;2023-12-20T08:14:54;147510.63;;;5.27;100.00
59531;BME280;45349;48.692;8.186;2023-12-20T08:17:22;147500.69;;;5.23;100.00
59531;BME280;45349;48.692;8.186;2023-12-20T08:19:49;147482.06;;;5.15;100.00
59531;BME280;45349;48.692;8.186;2023-12-20T08:22:17;147475.88;;;5.12;100.00
59531;BME280;45349;48.692;8.186;2023-12-20T08:24:43;147452.25;;;5.02;100.00
59531;BME280;45349;48.692;8.186;2023-12-20T08:27:10;147424.97;;;4.91;100.00
59531;BME280;45349;48.692;8.186;2023-12-20T08:29:37;147407.59;;;4.84;100.00
59531;BME280;45349;48.692;8.186;2023-12-20T08:32:04;147389.00;;;4.76;100.00
59531;BME280;45349;48.692;8.186;2023-12-20T08:34:31;147385.31;;;4.75;100.00
59531;BME280;45349;48.692;8.186;2023-12-20T08:36:58;147367.94;;;4.67;100.00
59531;BME280;45349;48.692;8.186;2023-12-20T08:39:26;147364.19;;;4.66;100.00
59531;BME280;45349;48.692;8.186;2023-12-20T08:41:52;147364.19;;;4.66;100.00
59531;BME280;45349;48.692;8.186;2023-12-20T08:44:19;147380.34;;;4.72;100.00
59531;BME280;45349;48.692;8.186;2023-12-20T08:46:47;147411.34;;;4.85;100.00
59531;BME280;45349;48.692;8.186;2023-12-20T08:49:14;147428.72;;;4.93;100.00
59531;BME280;45349;48.692;8.186;2023-12-20T08:51:41;147452.25;;;5.02;100.00
59531;BME280;45349;48.692;8.186;2023-12-20T08:54:07;147490.75;;;5.19;100.00
59531;BME280;45349;48.692;8.186;2023-12-20T08:56:35;147501.91;;;5.23;100.00
59531;BME280;45349;48.692;8.186;2023-12-20T08:59:02;147500.69;;;5.23;100.00
59531;BME280;45349;48.692;8.186;2023-12-20T09:01:28;147480.84;;;5.14;100.00
59531;BME280;45349;48.692;8.186;2023-12-20T09:03:55;147480.84;;;5.14;100.00
59531;BME280;45349;48.692;8.186;2023-12-20T09:06:22;147503.16;;;5.24;100.00
59531;BME280;45349;48.692;8.186;2023-12-20T09:08:49;147503.16;;;5.24;100.00
59531;BME280;45349;48.692;8.186;2023-12-20T09:11:16;147503.16;;;5.24;100.00
59531;BME280;45349;48.692;8.186;2023-12-20T09:13:44;147506.88;;;5.25;100.00
59531;BME280;45349;48.692;8.186;2023-12-20T09:16:10;147540.34;;;5.39;100.00
59531;BME280;45349;48.692;8.186;2023-12-20T09:18:38;147545.31;;;5.41;100.00
59531;BME280;45349;48.692;8.186;2023-12-20T09:21:05;147576.38;;;5.54;100.00
59531;BME280;45349;48.692;8.186;2023-12-20T09:23:31;147567.66;;;5.51;100.00
59531;BME280;45349;48.692;8.186;2023-12-20T09:25:59;147561.47;;;5.48;100.00
59531;BME280;45349;48.692;8.186;2023-12-20T09:28:25;147601.19;;;5.65;100.00
59531;BME280;45349;48.692;8.186;2023-12-20T09:30:53;147597.44;;;5.63;100.00
59531;BME280;45349;48.692;8.186;2023-12-20T09:33:20;147604.91;;;5.66;100.00
59531;BME280;45349;48.692;8.186;2023-12-20T09:35:47;147611.13;;;5.69;100.00
59531;BME280;45349;48.692;8.186;2023-12-20T09:38:13;147598.72;;;5.64;100.00
59531;BME280;45349;48.692;8.186;2023-12-20T09:40:41;147592.47;;;5.61;100.00
59531;BME280;45349;48.692;8.186;2023-12-20T09:43:10;147563.97;;;5.49;100.00
59531;BME280;45349;48.692;8.186;2023-12-20T09:45:38;147590.00;;;5.60;100.00
59531;BME280;45349;48.692;8.186;2023-12-20T09:48:08;147570.13;;;5.52;100.00
59531;BME280;45349;48.692;8.186;2023-12-20T09:50:37;147619.78;;;5.72;100.00
59531;BME280;45349;48.692;8.186;2023-12-20T09:53:04;147613.59;;;5.70;100.00
59531;BME280;45349;48.692;8.186;2023-12-20T09:55:31;147596.22;;;5.63;100.00
59531;BME280;45349;48.692;8.186;2023-12-20T09:57:59;147586.31;;;5.58;100.00
59531;BME280;45349;48.692;8.186;2023-12-20T10:00:26;147586.31;;;5.58;100.00
59531;BME280;45349;48.692;8.186;2023-12-20T10:02:56;147622.28;;;5.73;100.00
59531;BME280;45349;48.692;8.186;2023-12-20T10:05:27;147685.56;;;6.00;100.00
59531;BME280;45349;48.692;8.186;2023-12-20T10:07:54;147686.88;;;6.00;100.00
59531;BME280;45349;48.692;8.186;2023-12-20T10:10:20;147607.38;;;5.67;100.00
59531;BME280;45349;48.692;8.186;2023-12-20T10:13:01;147645.84;;;5.83;100.00
59531;BME280;45349;48.692;8.186;2023-12-20T10:15:28;147652.06;;;5.86;99.65
59531;BME280;45349;48.692;8.186;2023-12-20T10:17:56;147674.44;;;5.95;100.00
59531;BME280;45349;48.692;8.186;2023-12-20T10:20:24;147627.25;;;5.75;96.83
59531;BME280;45349;48.692;8.186;2023-12-20T10:22:51;147599.94;;;5.64;97.25
59531;BME280;45349;48.692;8.186;2023-12-20T10:25:19;147596.22;;;5.63;97.46
59531;BME280;45349;48.692;8.186;2023-12-20T10:27:46;147627.25;;;5.75;99.57
59531;BME280;45349;48.692;8.186;2023-12-20T10:30:13;147590.00;;;5.60;98.87
59531;BME280;45349;48.692;8.186;2023-12-20T10:32:40;147552.75;;;5.44;98.23
59531;BME280;45349;48.692;8.186;2023-12-20T10:35:08;147580.06;;;5.56;97.37
59531;BME280;45349;48.692;8.186;2023-12-20T10:37:37;147580.06;;;5.56;96.82
59531;BME280;45349;48.692;8.186;2023-12-20T10:40:04;147577.59;;;5.55;97.83
59531;BME280;45349;48.692;8.186;2023-12-20T10:42:32;147578.84;;;5.55;97.83
59531;BME280;45349;48.692;8.186;2023-12-20T10:45:00;147572.63;;;5.53;96.30
59531;BME280;45349;48.692;8.186;2023-12-20T10:47:27;147604.91;;;5.66;94.58
59531;BME280;45349;48.692;8.186;2023-12-20T10:49:54;147561.47;;;5.48;95.82
59531;BME280;45349;48.692;8.186;2023-12-20T10:52:23;147549.06;;;5.43;96.90
59531;BME280;45349;48.692;8.186;2023-12-20T10:54:51;147570.13;;;5.52;96.28
59531;BME280;45349;48.692;8.186;2023-12-20T10:57:18;147582.56;;;5.57;93.71
59531;BME280;45349;48.692;8.186;2023-12-20T10:59:45;147621.06;;;5.73;93.49
59531;BME280;45349;48.692;8.186;2023-12-20T11:02:13;147624.75;;;5.74;94.04
59531;BME280;45349;48.692;8.186;2023-12-20T11:04:44;147653.28;;;5.86;94.72
59531;BME280;45349;48.692;8.186;2023-12-20T11:07:19;147623.53;;;5.74;89.56
59531;BME280;45349;48.692;8.186;2023-12-20T11:09:53;147613.59;;;5.70;94.10
59531;BME280;45349;48.692;8.186;2023-12-20T11:12:32;147649.59;;;5.85;94.08
59531;BME280;45349;48.692;8.186;2023-12-20T11:15:02;147664.50;;;5.91;94.30
59531;BME280;45349;48.692;8.186;2023-12-20T11:17:31;147639.66;;;5.81;94.97
59531;BME280;45349;48.692;8.186;2023-12-20T11:20:08;147669.44;;;5.93;93.45
59531;BME280;45349;48.692;8.186;2023-12-20T11:22:37;147684.34;;;5.99;92.66
59531;BME280;45349;48.692;8.186;2023-12-20T11:25:09;147721.66;;;6.15;92.53
59531;BME280;45349;48.692;8.186;2023-12-20T11:27:40;147699.31;;;6.05;91.30
59531;BME280;45349;48.692;8.186;2023-12-20T11:30:08;147703.00;;;6.07;90.33
59531;BME280;45349;48.692;8.186;2023-12-20T11:32:36;147731.59;;;6.19;88.89
59531;BME280;45349;48.692;8.186;2023-12-20T11:35:17;147665.72;;;5.91;90.64
59531;BME280;45349;48.692;8.186;2023-12-20T11:37:45;147709.25;;;6.10;84.71
59531;BME280;45349;48.692;8.186;2023-12-20T11:40:15;147676.91;;;5.96;89.01
59531;BME280;45349;48.692;8.186;2023-12-20T11:42:43;147675.63;;;5.96;90.38
59531;BME280;45349;48.692;8.186;2023-12-20T11:45:11;147631.00;;;5.77;90.34
59531;BME280;45349;48.692;8.186;2023-12-20T11:47:40;147640.94;;;5.81;89.83
59531;BME280;45349;48.692;8.186;2023-12-20T11:50:07;147616.09;;;5.71;91.92
59531;BME280;45349;48.692;8.186;2023-12-20T11:52:34;147598.72;;;5.64;92.36
59531;BME280;45349;48.692;8.186;2023-12-20T11:55:01;147642.16;;;5.82;88.96
59531;BME280;45349;48.692;8.186;2023-12-20T11:57:30;147623.53;;;5.74;89.22
59531;BME280;45349;48.692;8.186;2023-12-20T11:59:57;147594.97;;;5.62;89.67
59531;BME280;45349;48.692;8.186;2023-12-20T12:02:23;147577.59;;;5.55;89.63
59531;BME280;45349;48.692;8.186;2023-12-20T12:04:50;147555.25;;;5.45;89.59
59531;BME280;45349;48.692;8.186;2023-12-20T12:07:17;147562.69;;;5.49;88.80
59531;BME280;45349;48.692;8.186;2023-12-20T12:09:44;147568.94;;;5.51;89.87
59531;BME280;45349;48.692;8.186;2023-12-20T12:12:12;147587.53;;;5.59;88.97
59531;BME280;45349;48.692;8.186;2023-12-20T12:14:41;147551.53;;;5.44;89.46
59531;BME280;45349;48.692;8.186;2023-12-20T12:17:10;147562.69;;;5.49;87.54
59531;BME280;45349;48.692;8.186;2023-12-20T12:19:38;147547.81;;;5.42;89.73
59531;BME280;45349;48.692;8.186;2023-12-20T12:22:05;147503.16;;;5.24;88.56
59531;BME280;45349;48.692;8.186;2023-12-20T12:24:33;147522.97;;;5.32;90.29
59531;BME280;45349;48.692;8.186;2023-12-20T12:27:00;147597.44;;;5.63;89.57
59531;BME280;45349;48.692;8.186;2023-12-20T12:29:31;147563.97;;;5.49;91.66
59531;BME280;45349;48.692;8.186;2023-12-20T12:31:59;147611.13;;;5.69;91.69
59531;BME280;45349;48.692;8.186;2023-12-20T12:34:27;147572.63;;;5.53;91.10
59531;BME280;45349;48.692;8.186;2023-12-20T12:36:53;147547.81;;;5.42;91.26
59531;BME280;45349;48.692;8.186;2023-12-20T12:39:20;147522.97;;;5.32;92.81
59531;BME280;45349;48.692;8.186;2023-12-20T12:41:47;147557.72;;;5.46;93.14
59531;BME280;45349;48.692;8.186;2023-12-20T12:44:13;147542.84;;;5.40;93.34
59531;BME280;45349;48.692;8.186;2023-12-20T12:46:40;147545.31;;;5.41;94.42
59531;BME280;45349;48.692;8.186;2023-12-20T12:49:08;147566.44;;;5.50;94.63
59531;BME280;45349;48.692;8.186;2023-12-20T12:51:34;147547.81;;;5.42;94.54
59531;BME280;45349;48.692;8.186;2023-12-20T12:54:01;147555.25;;;5.45;95.24